createdAt,value
2018-07-26T00:00:30.395Z,89.89
2018-07-26T00:01:30.382Z,90.17
2018-07-26T00:02:30.370Z,89.89
2018-07-26T00:03:30.385Z,90.47
2018-07-26T00:04:30.369Z,89.98
2018-07-26T00:05:30.341Z,90.17
2018-07-26T00:06:30.326Z,89.79
2018-07-26T00:07:30.327Z,90.08
2018-07-26T00:08:30.327Z,90.75
2018-07-26T00:09:30.296Z,90.85
2018-07-26T00:10:30.306Z,90.66
2018-07-26T00:11:30.283Z,90.66
2018-07-26T00:12:30.281Z,90.37
2018-07-26T00:13:30.291Z,90.85
2018-07-26T00:14:30.261Z,90.47
2018-07-26T00:15:30.418Z,91.09
2018-07-26T00:16:30.254Z,90.17
2018-07-26T00:17:30.235Z,90.56
2018-07-26T00:18:30.225Z,90.56
2018-07-26T00:19:30.221Z,90.85
2018-07-26T00:20:30.209Z,91.82
2018-07-26T00:21:30.223Z,91.33
2018-07-26T00:22:30.192Z,92.79
2018-07-26T00:23:30.167Z,92.69
2018-07-26T00:24:30.165Z,92.79
2018-07-26T00:25:30.212Z,93.17
2018-07-26T00:26:30.146Z,92.88
2018-07-26T00:27:30.164Z,92.83
2018-07-26T00:28:30.120Z,93.71
2018-07-26T00:29:30.117Z,94.19
2018-07-26T00:30:30.107Z,94.57
2018-07-26T00:31:30.112Z,95.73
2018-07-26T00:32:30.101Z,95.64
2018-07-26T00:33:30.098Z,95.45
2018-07-26T00:34:30.067Z,95.35
2018-07-26T00:35:30.062Z,94.96
2018-07-26T00:36:30.083Z,95.35
2018-07-26T00:37:30.053Z,95.45
2018-07-26T00:38:30.027Z,95.93
2018-07-26T00:39:30.033Z,95.54
2018-07-26T00:40:30.017Z,95.06
2018-07-26T00:41:30.002Z,94.67
2018-07-26T00:42:30.001Z,94.77
2018-07-26T00:43:30.000Z,95.64
2018-07-26T00:44:29.991Z,95.15
2018-07-26T00:45:29.977Z,94.96
2018-07-26T00:46:29.952Z,95.35
2018-07-26T00:47:29.949Z,95.54
2018-07-26T00:48:29.959Z,95.93
2018-07-26T00:49:29.927Z,96.31
2018-07-26T00:50:29.932Z,96.31
2018-07-26T00:51:29.910Z,95.45
2018-07-26T00:52:29.896Z,95.35
2018-07-26T00:53:29.891Z,94.38
2018-07-26T00:54:29.875Z,94.48
2018-07-26T00:55:29.892Z,94.57
2018-07-26T00:56:29.860Z,94.77
2018-07-26T00:57:29.848Z,93.99
2018-07-26T00:58:29.839Z,94.33
2018-07-26T00:59:29.864Z,94.14
2018-07-26T01:00:29.832Z,94.24
2018-07-26T01:01:29.822Z,94.62
2018-07-26T01:02:29.805Z,94.04
2018-07-26T01:03:29.791Z,93.95
2018-07-26T01:04:29.779Z,93.85
2018-07-26T01:05:29.784Z,93.95
2018-07-26T01:06:29.760Z,93.85
2018-07-26T01:07:29.773Z,94.04
2018-07-26T01:08:29.747Z,93.17
2018-07-26T01:09:29.764Z,93.66
2018-07-26T01:10:29.728Z,93.56
2018-07-26T01:11:29.732Z,93.37
2018-07-26T01:12:29.708Z,93.08
2018-07-26T01:13:29.712Z,93.17
2018-07-26T01:14:29.690Z,93.17
2018-07-26T01:15:29.674Z,93.17
2018-07-26T01:16:29.683Z,93.08
2018-07-26T01:17:29.675Z,93.37
2018-07-26T01:18:29.645Z,92.79
2018-07-26T01:19:29.650Z,92.98
2018-07-26T01:20:29.633Z,92.98
2018-07-26T01:21:29.637Z,93.08
2018-07-26T01:22:29.624Z,92.59
2018-07-26T01:23:29.611Z,93.56
2018-07-26T01:24:29.588Z,93.46
2018-07-26T01:25:29.591Z,93.56
2018-07-26T01:26:29.602Z,93.85
2018-07-26T01:27:29.562Z,93.46
2018-07-26T01:28:29.559Z,94.14
2018-07-26T01:29:29.543Z,94.04
2018-07-26T01:30:29.547Z,93.75
2018-07-26T01:31:29.520Z,93.85
2018-07-26T01:32:29.541Z,93.85
2018-07-26T01:33:29.523Z,93.95
2018-07-26T01:34:29.513Z,94.24
2018-07-26T01:35:29.497Z,94.19
2018-07-26T01:36:29.475Z,94.19
2018-07-26T01:37:29.462Z,93.80
2018-07-26T01:38:29.472Z,95.01
2018-07-26T01:39:29.451Z,94.57
2018-07-26T01:40:29.453Z,94.67
2018-07-26T01:41:29.445Z,94.48
2018-07-26T01:42:29.414Z,94.67
2018-07-26T01:43:29.412Z,94.38
2018-07-26T01:44:29.400Z,95.15
2018-07-26T01:45:29.403Z,95.35
2018-07-26T01:46:29.386Z,96.12
2018-07-26T01:47:29.384Z,96.70
2018-07-26T01:48:29.360Z,96.70
2018-07-26T01:49:29.379Z,97.57
2018-07-26T01:50:29.350Z,98.35
2018-07-26T01:51:29.327Z,99.31
2018-07-26T01:52:50.331Z,99.99
2018-07-26T01:53:29.305Z,99.99
2018-07-26T01:54:29.313Z,99.99
2018-07-26T01:55:29.293Z,99.99
2018-07-26T01:56:29.298Z,99.99
2018-07-26T01:57:29.270Z,99.99
2018-07-26T01:58:29.259Z,99.99
2018-07-26T01:59:29.278Z,99.99
2018-07-26T02:00:29.247Z,99.99
2018-07-26T02:01:29.235Z,99.99
2018-07-26T02:02:29.229Z,99.99
2018-07-26T02:03:29.229Z,99.99
2018-07-26T02:04:29.213Z,99.99
2018-07-26T02:05:29.188Z,99.99
2018-07-26T02:06:29.196Z,99.99
2018-07-26T02:07:29.172Z,99.99
2018-07-26T02:08:29.175Z,99.99
2018-07-26T02:09:29.168Z,99.99
2018-07-26T02:10:29.137Z,99.99
2018-07-26T02:11:29.151Z,99.99
2018-07-26T02:12:29.126Z,99.99
2018-07-26T02:13:29.125Z,99.99
2018-07-26T02:14:29.108Z,99.99
2018-07-26T02:15:29.109Z,99.99
2018-07-26T02:16:29.108Z,99.99
2018-07-26T02:17:29.088Z,99.99
2018-07-26T02:18:29.062Z,99.99
2018-07-26T02:19:29.075Z,99.99
2018-07-26T02:20:29.051Z,99.99
2018-07-26T02:21:29.040Z,99.99
2018-07-26T02:22:29.059Z,99.99
2018-07-26T02:23:29.030Z,99.99
2018-07-26T02:24:29.015Z,99.99
2018-07-26T02:25:29.031Z,99.99
2018-07-26T02:26:28.990Z,99.99
2018-07-26T02:27:28.987Z,99.99
2018-07-26T02:28:29.009Z,99.99
2018-07-26T02:29:28.970Z,99.99
2018-07-26T02:30:28.977Z,99.99
2018-07-26T02:31:28.936Z,99.99
2018-07-26T02:32:28.934Z,99.99
2018-07-26T02:33:28.933Z,99.99
2018-07-26T02:34:28.909Z,99.99
2018-07-26T02:35:28.896Z,99.99
2018-07-26T02:36:28.883Z,99.99
2018-07-26T02:37:28.882Z,99.99
2018-07-26T02:38:28.884Z,99.99
2018-07-26T02:39:28.850Z,99.99
2018-07-26T02:40:28.846Z,99.99
2018-07-26T02:41:28.871Z,99.99
2018-07-26T02:42:28.841Z,99.99
2018-07-26T02:43:28.820Z,99.99
2018-07-26T02:44:28.806Z,99.99
2018-07-26T02:45:28.794Z,99.99
2018-07-26T02:46:28.798Z,99.99
2018-07-26T02:47:28.836Z,99.99
2018-07-26T02:48:28.789Z,99.99
2018-07-26T02:49:28.753Z,99.99
2018-07-26T02:50:28.741Z,99.99
2018-07-26T02:51:28.738Z,99.99
2018-07-26T02:52:28.726Z,99.99
2018-07-26T02:53:28.725Z,99.99
2018-07-26T02:54:28.743Z,99.99
2018-07-26T02:55:28.696Z,99.99
2018-07-26T02:56:28.684Z,99.99
2018-07-26T02:57:28.672Z,99.99
2018-07-26T02:58:28.667Z,99.99
2018-07-26T02:59:28.656Z,99.99
2018-07-26T03:00:28.686Z,99.99
2018-07-26T03:01:28.637Z,99.99
2018-07-26T03:02:28.617Z,99.99
2018-07-26T03:03:28.621Z,99.99
2018-07-26T03:04:28.627Z,99.99
2018-07-26T03:05:28.586Z,99.99
2018-07-26T03:06:28.590Z,99.99
2018-07-26T03:07:28.570Z,99.99
2018-07-26T03:08:28.556Z,99.99
2018-07-26T03:09:28.582Z,99.99
2018-07-26T03:10:28.562Z,99.99
2018-07-26T03:11:28.520Z,99.99
2018-07-26T03:12:28.519Z,99.99
2018-07-26T03:13:28.509Z,99.99
2018-07-26T03:14:28.517Z,99.99
2018-07-26T03:15:28.509Z,99.99
2018-07-26T03:16:28.492Z,99.99
2018-07-26T03:17:28.476Z,99.99
2018-07-26T03:18:28.457Z,99.99
2018-07-26T03:19:28.441Z,99.99
2018-07-26T03:20:28.449Z,99.99
2018-07-26T03:21:28.440Z,99.99
2018-07-26T03:22:28.418Z,99.99
2018-07-26T03:23:28.415Z,99.99
2018-07-26T03:24:28.398Z,99.99
2018-07-26T03:25:28.386Z,99.99
2018-07-26T03:26:28.400Z,99.99
2018-07-26T03:27:28.377Z,99.99
2018-07-26T03:28:28.357Z,99.99
2018-07-26T03:29:28.354Z,99.99
2018-07-26T03:30:28.341Z,99.99
2018-07-26T03:31:28.338Z,99.99
2018-07-26T03:32:28.332Z,99.99
2018-07-26T03:33:28.302Z,99.99
2018-07-26T03:34:28.309Z,99.99
2018-07-26T03:35:28.287Z,99.99
2018-07-26T03:36:28.296Z,99.99
2018-07-26T03:37:49.424Z,99.99
2018-07-26T03:38:28.244Z,99.99
2018-07-26T03:39:28.826Z,99.99
2018-07-26T03:40:28.227Z,99.99
2018-07-26T03:41:28.241Z,99.99
2018-07-26T03:42:28.218Z,99.99
2018-07-26T03:43:28.271Z,99.99
2018-07-26T03:44:28.188Z,99.99
2018-07-26T03:45:28.183Z,99.99
2018-07-26T03:46:28.165Z,99.99
2018-07-26T03:47:28.203Z,99.99
2018-07-26T03:48:28.158Z,99.99
2018-07-26T03:49:28.135Z,99.99
2018-07-26T03:50:28.124Z,99.99
2018-07-26T03:51:36.440Z,99.99
2018-07-26T03:52:28.098Z,99.99
2018-07-26T03:53:28.107Z,99.99
2018-07-26T03:54:28.086Z,99.99
2018-07-26T03:55:28.085Z,99.99
2018-07-26T03:56:28.060Z,99.99
2018-07-26T03:57:28.047Z,99.99
2018-07-26T03:58:28.068Z,99.99
2018-07-26T03:59:28.039Z,99.99
2018-07-26T04:00:28.016Z,99.99
2018-07-26T04:01:28.012Z,99.99
2018-07-26T04:02:27.996Z,99.99
2018-07-26T04:03:28.025Z,99.99
2018-07-26T04:04:28.006Z,99.99
2018-07-26T04:05:27.975Z,99.99
2018-07-26T04:06:27.951Z,99.99
2018-07-26T04:07:27.957Z,99.99
2018-07-26T04:08:27.936Z,99.99
2018-07-26T04:09:27.960Z,99.99
2018-07-26T04:10:27.934Z,99.99
2018-07-26T04:11:27.901Z,99.99
2018-07-26T04:12:27.900Z,99.99
2018-07-26T04:13:27.887Z,99.99
2018-07-26T04:14:27.901Z,99.99
2018-07-26T04:15:27.869Z,99.99
2018-07-26T04:16:27.891Z,99.99
2018-07-26T04:17:27.845Z,99.99
2018-07-26T04:18:27.836Z,99.99
2018-07-26T04:19:27.837Z,99.99
2018-07-26T04:20:27.837Z,99.99
2018-07-26T04:21:27.833Z,99.99
2018-07-26T04:22:27.799Z,99.99
2018-07-26T04:23:27.822Z,99.99
2018-07-26T04:24:27.767Z,99.99
2018-07-26T04:25:27.803Z,99.99
2018-07-26T04:26:27.786Z,99.99
2018-07-26T04:27:27.739Z,99.99
2018-07-26T04:28:27.747Z,99.99
2018-07-26T04:29:27.725Z,99.99
2018-07-26T04:30:27.709Z,99.99
2018-07-26T04:31:27.729Z,99.99
2018-07-26T04:32:27.744Z,99.99
2018-07-26T04:33:27.701Z,99.99
2018-07-26T04:34:27.692Z,99.99
2018-07-26T04:35:27.678Z,99.99
2018-07-26T04:36:27.683Z,99.99
2018-07-26T04:37:27.653Z,99.99
2018-07-26T04:38:27.652Z,99.99
2018-07-26T04:39:27.630Z,99.99
2018-07-26T04:40:27.611Z,99.99
2018-07-26T04:41:27.599Z,99.99
2018-07-26T04:42:27.607Z,99.99
2018-07-26T04:43:27.568Z,99.99
2018-07-26T04:44:27.575Z,99.99
2018-07-26T04:45:27.576Z,99.99
2018-07-26T04:46:27.543Z,99.99
2018-07-26T04:47:27.546Z,99.99
2018-07-26T04:48:27.535Z,99.99
2018-07-26T04:49:27.534Z,99.99
2018-07-26T04:50:27.524Z,99.99
2018-07-26T04:51:27.495Z,99.99
2018-07-26T04:52:27.517Z,99.99
2018-07-26T04:53:27.484Z,99.99
2018-07-26T04:54:27.470Z,99.99
2018-07-26T04:55:27.489Z,99.99
2018-07-26T04:56:27.445Z,99.99
2018-07-26T04:57:27.465Z,99.99
2018-07-26T04:58:27.450Z,99.99
2018-07-26T04:59:27.417Z,99.99
2018-07-26T05:00:27.432Z,99.99
2018-07-26T05:01:27.425Z,99.99
2018-07-26T05:02:27.408Z,99.99
2018-07-26T05:03:27.426Z,99.99
2018-07-26T05:04:27.384Z,99.99
2018-07-26T05:05:27.391Z,99.99
2018-07-26T05:06:27.349Z,99.99
2018-07-26T05:07:27.338Z,99.99
2018-07-26T05:08:27.355Z,99.99
2018-07-26T05:09:27.356Z,99.99
2018-07-26T05:10:27.332Z,99.99
2018-07-26T05:11:27.333Z,99.99
2018-07-26T05:12:27.302Z,99.99
2018-07-26T05:13:27.323Z,99.99
2018-07-26T05:14:27.314Z,99.99
2018-07-26T05:15:27.261Z,99.99
2018-07-26T05:16:27.257Z,99.99
2018-07-26T05:17:27.274Z,99.99
2018-07-26T05:18:27.272Z,99.99
2018-07-26T05:19:27.238Z,99.99
2018-07-26T05:20:27.209Z,99.99
2018-07-26T05:21:27.234Z,99.99
2018-07-26T05:22:27.211Z,99.99
2018-07-26T05:23:27.222Z,99.99
2018-07-26T05:24:27.201Z,99.99
2018-07-26T05:25:27.209Z,99.99
2018-07-26T05:26:27.162Z,99.99
2018-07-26T05:27:27.170Z,99.99
2018-07-26T05:28:27.270Z,99.99
2018-07-26T05:29:27.145Z,99.07
2018-07-26T05:30:27.141Z,99.02
2018-07-26T05:31:27.113Z,97.86
2018-07-26T05:32:27.095Z,97.38
2018-07-26T05:33:27.101Z,95.44
2018-07-26T05:34:27.100Z,95.78
2018-07-26T05:35:27.076Z,95.00
2018-07-26T05:36:27.078Z,93.74
2018-07-26T05:37:27.082Z,94.32
2018-07-26T05:38:27.041Z,94.71
2018-07-26T05:39:27.057Z,94.81
2018-07-26T05:40:27.017Z,95.00
2018-07-26T05:41:27.032Z,95.39
2018-07-26T05:42:27.003Z,95.78
2018-07-26T05:43:26.996Z,95.49
2018-07-26T05:44:26.999Z,95.10
2018-07-26T05:45:27.005Z,95.00
2018-07-26T05:46:26.988Z,96.84
2018-07-26T05:47:26.952Z,94.81
2018-07-26T05:48:26.973Z,95.00
2018-07-26T05:49:26.948Z,93.55
2018-07-26T05:50:26.949Z,94.04
2018-07-26T05:51:26.935Z,96.94
2018-07-26T05:52:26.929Z,95.00
2018-07-26T05:53:26.991Z,94.37
2018-07-26T05:54:26.925Z,96.12
2018-07-26T05:55:26.945Z,96.17
2018-07-26T05:56:26.912Z,95.92
2018-07-26T05:57:26.868Z,94.52
2018-07-26T05:58:26.888Z,94.90
2018-07-26T05:59:26.883Z,95.49
2018-07-26T06:00:26.856Z,95.78
2018-07-26T06:01:26.859Z,95.44
2018-07-26T06:02:26.823Z,95.20
2018-07-26T06:03:26.848Z,93.94
2018-07-26T06:04:26.805Z,93.16
2018-07-26T06:05:26.800Z,92.19
2018-07-26T06:06:26.825Z,91.52
2018-07-26T06:07:26.781Z,91.22
2018-07-26T06:08:26.787Z,92.39
2018-07-26T06:09:26.754Z,91.13
2018-07-26T06:10:26.746Z,91.22
2018-07-26T06:11:26.767Z,90.40
2018-07-26T06:12:26.742Z,90.01
2018-07-26T06:13:26.724Z,91.08
2018-07-26T06:14:26.722Z,89.23
2018-07-26T06:15:26.721Z,89.53
2018-07-26T06:16:26.763Z,88.95
2018-07-26T06:17:26.717Z,89.33
2018-07-26T06:18:26.681Z,88.27
2018-07-26T06:19:26.680Z,88.07
2018-07-26T06:20:26.692Z,90.16
2018-07-26T06:21:26.667Z,90.54
2018-07-26T06:22:26.664Z,89.86
2018-07-26T06:23:26.679Z,87.78
2018-07-26T06:24:26.642Z,88.07
2018-07-26T06:25:26.661Z,86.27
2018-07-26T06:26:26.634Z,84.72
2018-07-26T06:27:26.600Z,85.89
2018-07-26T06:28:26.618Z,86.57
2018-07-26T06:29:26.587Z,85.30
2018-07-26T06:30:26.648Z,84.53
2018-07-26T06:31:26.564Z,84.92
2018-07-26T06:32:26.575Z,81.62
2018-07-26T06:33:26.617Z,81.62
2018-07-26T06:34:26.547Z,82.40
2018-07-26T06:35:26.540Z,81.62
2018-07-26T06:36:26.538Z,81.04
2018-07-26T06:37:26.517Z,80.26
2018-07-26T06:38:26.530Z,79.88
2018-07-26T06:39:26.556Z,80.75
2018-07-26T06:40:26.529Z,79.58
2018-07-26T06:41:26.513Z,79.39
2018-07-26T06:42:26.481Z,79.72
2018-07-26T06:43:26.462Z,79.82
2018-07-26T06:44:26.474Z,80.07
2018-07-26T06:45:26.448Z,80.79
2018-07-26T06:46:26.437Z,78.46
2018-07-26T06:47:26.471Z,78.46
2018-07-26T06:48:26.439Z,77.49
2018-07-26T06:49:26.446Z,77.98
2018-07-26T06:50:26.416Z,77.59
2018-07-26T06:51:26.411Z,77.20
2018-07-26T06:52:26.399Z,76.62
2018-07-26T06:53:26.418Z,76.65
2018-07-26T06:54:26.383Z,77.24
2018-07-26T06:55:26.364Z,76.17
2018-07-26T06:56:26.353Z,76.07
2018-07-26T06:57:26.402Z,75.88
2018-07-26T06:58:26.359Z,75.82
2018-07-26T06:59:26.356Z,76.01
2018-07-26T07:00:26.347Z,75.14
2018-07-26T07:01:26.332Z,73.10
2018-07-26T07:02:26.348Z,72.52
2018-07-26T07:03:26.301Z,72.67
2018-07-26T07:04:26.295Z,73.00
2018-07-26T07:05:26.303Z,73.20
2018-07-26T07:06:26.272Z,72.23
2018-07-26T07:07:26.298Z,71.58
2018-07-26T07:08:26.274Z,70.32
2018-07-26T07:09:26.241Z,69.84
2018-07-26T07:10:26.239Z,70.16
2018-07-26T07:11:26.238Z,69.96
2018-07-26T07:12:26.219Z,68.22
2018-07-26T07:13:26.216Z,67.73
2018-07-26T07:14:26.241Z,66.89
2018-07-26T07:15:26.215Z,67.08
2018-07-26T07:16:26.186Z,67.28
2018-07-26T07:17:26.184Z,66.11
2018-07-26T07:18:26.202Z,65.53
2018-07-26T07:19:26.168Z,64.95
2018-07-26T07:20:26.173Z,65.72
2018-07-26T07:21:26.152Z,65.66
2018-07-26T07:22:26.149Z,65.46
2018-07-26T07:23:26.158Z,65.08
2018-07-26T07:24:26.136Z,64.39
2018-07-26T07:25:26.125Z,64.59
2018-07-26T07:26:26.143Z,64.20
2018-07-26T07:27:26.117Z,64.13
2018-07-26T07:28:26.129Z,64.62
2018-07-26T07:29:26.114Z,64.04
2018-07-26T07:30:26.095Z,63.35
2018-07-26T07:31:26.109Z,62.96
2018-07-26T07:32:26.097Z,62.57
2018-07-26T07:33:26.076Z,63.65
2018-07-26T07:34:26.077Z,62.70
2018-07-26T07:35:26.105Z,62.70
2018-07-26T07:36:26.082Z,61.60
2018-07-26T07:37:26.092Z,61.60
2018-07-26T07:38:26.059Z,61.99
2018-07-26T07:39:26.053Z,61.90
2018-07-26T07:40:26.018Z,61.93
2018-07-26T07:41:26.053Z,61.63
2018-07-26T07:42:26.033Z,61.73
2018-07-26T07:43:25.994Z,61.83
2018-07-26T07:44:26.009Z,61.54
2018-07-26T07:45:25.985Z,60.66
2018-07-26T07:46:26.003Z,60.36
2018-07-26T07:47:26.132Z,60.75
2018-07-26T07:48:25.976Z,61.37
2018-07-26T07:49:25.953Z,61.27
2018-07-26T07:50:25.952Z,60.98
2018-07-26T07:51:25.938Z,60.91
2018-07-26T07:52:25.950Z,59.52
2018-07-26T07:53:25.941Z,59.52
2018-07-26T07:54:25.948Z,60.59
2018-07-26T07:55:25.914Z,59.62
2018-07-26T07:56:25.909Z,59.94
2018-07-26T07:57:25.934Z,59.45
2018-07-26T07:58:25.886Z,60.82
2018-07-26T07:59:25.977Z,60.42
2018-07-26T08:00:25.905Z,59.28
2018-07-26T08:01:25.872Z,59.09
2018-07-26T08:02:25.881Z,59.28
2018-07-26T08:03:25.874Z,59.02
2018-07-26T08:04:25.871Z,58.14
2018-07-26T08:05:25.928Z,57.75
2018-07-26T08:06:25.845Z,57.95
2018-07-26T08:07:25.845Z,58.04
2018-07-26T08:08:25.821Z,58.34
2018-07-26T08:09:25.833Z,56.90
2018-07-26T08:10:25.813Z,56.51
2018-07-26T08:11:25.816Z,57.29
2018-07-26T08:12:25.803Z,57.78
2018-07-26T08:13:25.791Z,56.22
2018-07-26T08:14:25.796Z,55.63
2018-07-26T08:15:25.790Z,56.41
2018-07-26T08:16:25.815Z,55.54
2018-07-26T08:17:25.773Z,57.59
2018-07-26T08:18:25.759Z,56.81
2018-07-26T08:19:25.747Z,56.61
2018-07-26T08:20:25.744Z,56.81
2018-07-26T08:21:25.813Z,56.12
2018-07-26T08:22:25.731Z,57.81
2018-07-26T08:23:25.722Z,55.66
2018-07-26T08:24:25.720Z,55.27
2018-07-26T08:25:25.707Z,56.64
2018-07-26T08:26:25.720Z,55.57
2018-07-26T08:27:25.715Z,55.57
2018-07-26T08:28:25.689Z,57.15
2018-07-26T08:29:25.761Z,54.59
2018-07-26T08:30:25.681Z,53.25
2018-07-26T08:31:25.692Z,53.64
2018-07-26T08:32:25.745Z,53.15
2018-07-26T08:33:25.664Z,52.37
2018-07-26T08:34:25.651Z,52.69
2018-07-26T08:35:25.657Z,51.88
2018-07-26T08:36:25.658Z,53.08
2018-07-26T08:37:25.639Z,52.00
2018-07-26T08:38:25.648Z,52.98
2018-07-26T08:39:25.618Z,51.71
2018-07-26T08:40:25.662Z,51.25
2018-07-26T08:41:25.615Z,51.54
2018-07-26T08:42:25.607Z,51.56
2018-07-26T08:43:25.611Z,51.17
2018-07-26T08:44:25.596Z,50.10
2018-07-26T08:45:25.592Z,50.32
2018-07-26T08:46:25.579Z,50.90
2018-07-26T08:47:25.567Z,50.12
2018-07-26T08:48:25.624Z,49.65
2018-07-26T08:49:25.598Z,50.04
2018-07-26T08:50:25.555Z,49.58
2018-07-26T08:51:25.545Z,48.50
2018-07-26T08:52:25.540Z,50.17
2018-07-26T08:53:25.539Z,48.80
2018-07-26T08:54:25.544Z,49.31
2018-07-26T08:55:25.530Z,49.70
2018-07-26T08:56:25.517Z,48.41
2018-07-26T08:57:25.511Z,48.13
2018-07-26T08:58:25.503Z,49.41
2018-07-26T08:59:25.513Z,49.73
2018-07-26T09:00:25.495Z,48.25
2018-07-26T09:01:25.521Z,45.83
2018-07-26T09:02:25.486Z,46.31
2018-07-26T09:03:25.477Z,45.65
2018-07-26T09:04:25.484Z,44.89
2018-07-26T09:05:25.479Z,44.02
2018-07-26T09:06:25.461Z,44.12
2018-07-26T09:07:25.452Z,43.95
2018-07-26T09:08:25.461Z,43.38
2018-07-26T09:09:25.484Z,42.71
2018-07-26T09:10:25.455Z,41.25
2018-07-26T09:11:25.486Z,41.24
2018-07-26T09:12:25.427Z,40.69
2018-07-26T09:13:25.432Z,40.48
2018-07-26T09:14:25.429Z,39.79
2018-07-26T09:15:25.415Z,38.73
2018-07-26T09:16:25.419Z,38.75
2018-07-26T09:17:25.406Z,38.24
2018-07-26T09:18:26.005Z,38.71
2018-07-26T09:19:25.430Z,38.22
2018-07-26T09:20:25.386Z,38.51
2018-07-26T09:21:25.395Z,39.01
2018-07-26T09:22:25.377Z,39.50
2018-07-26T09:23:25.390Z,38.73
2018-07-26T09:24:25.387Z,37.07
2018-07-26T09:25:25.379Z,36.48
2018-07-26T09:26:25.380Z,36.90
2018-07-26T09:27:25.350Z,37.01
2018-07-26T09:28:25.353Z,37.07
2018-07-26T09:29:25.360Z,36.11
2018-07-26T09:30:25.336Z,36.80
2018-07-26T09:31:25.336Z,36.82
2018-07-26T09:32:25.362Z,38.10
2018-07-26T09:33:25.390Z,37.10
2018-07-26T09:34:25.348Z,37.81
2018-07-26T09:35:25.364Z,37.87
2018-07-26T09:36:25.329Z,38.56
2018-07-26T09:37:25.324Z,38.36
2018-07-26T09:38:25.321Z,37.69
2018-07-26T09:39:25.311Z,37.43
2018-07-26T09:40:25.341Z,38.24
2018-07-26T09:41:25.319Z,35.99
2018-07-26T09:42:25.324Z,35.91
2018-07-26T09:43:25.313Z,37.43
2018-07-26T09:44:25.308Z,37.07
2018-07-26T09:45:25.323Z,34.81
2018-07-26T09:46:25.324Z,34.23
2018-07-26T09:47:25.333Z,34.25
2018-07-26T09:48:25.326Z,34.25
2018-07-26T09:49:25.307Z,32.58
2018-07-26T09:50:25.325Z,33.07
2018-07-26T09:51:25.311Z,32.20
2018-07-26T09:52:25.314Z,33.49
2018-07-26T09:53:25.311Z,32.91
2018-07-26T09:54:25.322Z,33.49
2018-07-26T09:55:25.344Z,33.59
2018-07-26T09:56:25.324Z,33.13
2018-07-26T09:57:25.316Z,33.16
2018-07-26T09:58:25.311Z,33.57
2018-07-26T09:59:25.321Z,32.12
2018-07-26T10:00:25.409Z,34.10
2018-07-26T10:01:25.333Z,32.54
2018-07-26T10:02:25.340Z,31.37
2018-07-26T10:03:25.332Z,31.05
2018-07-26T10:04:25.325Z,30.07
2018-07-26T10:05:25.340Z,30.15
2018-07-26T10:06:25.336Z,30.55
2018-07-26T10:07:25.327Z,31.13
2018-07-26T10:08:25.350Z,29.44
2018-07-26T10:09:25.338Z,28.83
2018-07-26T10:10:25.353Z,29.06
2018-07-26T10:11:25.358Z,28.67
2018-07-26T10:12:25.348Z,29.48
2018-07-26T10:13:25.346Z,28.79
2018-07-26T10:14:25.369Z,28.59
2018-07-26T10:15:25.353Z,28.49
2018-07-26T10:16:25.375Z,29.72
2018-07-26T10:17:25.357Z,31.60
2018-07-26T10:18:25.366Z,30.85
2018-07-26T10:19:25.380Z,31.19
2018-07-26T10:20:25.366Z,31.01
2018-07-26T10:21:25.370Z,31.23
2018-07-26T10:22:25.388Z,31.46
2018-07-26T10:23:25.376Z,29.68
2018-07-26T10:24:25.388Z,29.85
2018-07-26T10:25:25.403Z,30.92
2018-07-26T10:26:25.388Z,32.40
2018-07-26T10:27:25.406Z,31.40
2018-07-26T10:28:25.398Z,31.70
2018-07-26T10:29:25.411Z,31.10
2018-07-26T10:30:25.415Z,30.99
2018-07-26T10:31:25.404Z,31.51
2018-07-26T10:32:25.409Z,31.57
2018-07-26T10:33:25.411Z,32.06
2018-07-26T10:34:25.418Z,32.19
2018-07-26T10:35:25.430Z,31.54
2018-07-26T10:36:25.412Z,31.35
2018-07-26T10:37:25.420Z,30.47
2018-07-26T10:38:25.424Z,30.06
2018-07-26T10:39:25.455Z,29.97
2018-07-26T10:40:25.444Z,30.08
2018-07-26T10:41:25.437Z,29.96
2018-07-26T10:42:25.438Z,30.43
2018-07-26T10:43:25.443Z,30.91
2018-07-26T10:44:25.526Z,31.73
2018-07-26T10:45:25.459Z,31.36
2018-07-26T10:46:25.464Z,29.60
2018-07-26T10:47:25.452Z,28.72
2018-07-26T10:48:25.459Z,28.25
2018-07-26T10:49:25.480Z,27.95
2018-07-26T10:50:25.474Z,27.56
2018-07-26T10:51:25.465Z,28.05
2018-07-26T10:52:25.512Z,28.05
2018-07-26T10:53:25.469Z,28.70
2018-07-26T10:54:25.478Z,28.97
2018-07-26T10:55:25.489Z,30.05
2018-07-26T10:56:25.495Z,29.27
2018-07-26T10:57:25.504Z,29.39
2018-07-26T10:58:25.506Z,28.70
2018-07-26T10:59:25.497Z,28.52
2018-07-26T11:00:25.572Z,29.13
2018-07-26T11:01:25.506Z,29.33
2018-07-26T11:02:25.519Z,28.30
2018-07-26T11:03:25.510Z,29.55
2018-07-26T11:04:25.517Z,28.80
2018-07-26T11:05:25.523Z,29.10
2018-07-26T11:06:25.528Z,29.68
2018-07-26T11:07:25.559Z,29.17
2018-07-26T11:08:25.534Z,30.47
2018-07-26T11:09:25.541Z,28.81
2018-07-26T11:10:25.536Z,28.75
2018-07-26T11:11:25.553Z,29.55
2018-07-26T11:12:25.562Z,27.56
2018-07-26T11:13:25.564Z,28.03
2018-07-26T11:14:25.566Z,28.04
2018-07-26T11:15:25.563Z,27.95
2018-07-26T11:16:25.566Z,28.17
2018-07-26T11:17:25.581Z,27.09
2018-07-26T11:18:25.568Z,26.61
2018-07-26T11:19:25.575Z,27.80
2018-07-26T11:20:25.576Z,27.81
2018-07-26T11:21:25.601Z,27.04
2018-07-26T11:22:25.599Z,28.23
2018-07-26T11:23:25.592Z,26.15
2018-07-26T11:24:25.617Z,26.33
2018-07-26T11:25:25.597Z,26.70
2018-07-26T11:26:25.602Z,26.59
2018-07-26T11:27:25.607Z,26.15
2018-07-26T11:28:25.611Z,27.12
2018-07-26T11:29:25.631Z,28.28
2018-07-26T11:30:25.624Z,28.79
2018-07-26T11:31:25.623Z,28.62
2018-07-26T11:32:25.688Z,26.87
2018-07-26T11:33:26.525Z,26.49
2018-07-26T11:34:25.655Z,26.21
2018-07-26T11:35:25.654Z,26.62
2018-07-26T11:36:25.654Z,25.63
2018-07-26T11:37:25.656Z,25.13
2018-07-26T11:38:25.661Z,25.01
2018-07-26T11:39:25.686Z,25.23
2018-07-26T11:40:25.687Z,25.51
2018-07-26T11:41:25.724Z,27.09
2018-07-26T11:42:25.677Z,25.50
2018-07-26T11:43:25.684Z,25.51
2018-07-26T11:44:25.688Z,25.31
2018-07-26T11:45:25.710Z,25.54
2018-07-26T11:46:25.694Z,25.85
2018-07-26T11:47:25.700Z,24.07
2018-07-26T11:48:25.701Z,25.46
2018-07-26T11:49:25.713Z,25.25
2018-07-26T11:50:25.729Z,25.63
2018-07-26T11:51:25.725Z,24.74
2018-07-26T11:52:25.724Z,25.02
2018-07-26T11:53:25.733Z,25.21
2018-07-26T11:54:25.741Z,25.51
2018-07-26T11:55:25.760Z,25.21
2018-07-26T11:56:25.751Z,25.51
2018-07-26T11:57:25.750Z,25.51
2018-07-26T11:58:25.757Z,25.91
2018-07-26T11:59:25.778Z,25.61
2018-07-26T12:00:25.770Z,25.40
2018-07-26T12:01:25.783Z,25.21
2018-07-26T12:02:25.813Z,25.61
2018-07-26T12:03:25.782Z,25.21
2018-07-26T12:04:25.787Z,25.10
2018-07-26T12:05:25.791Z,25.61
2018-07-26T12:06:25.808Z,25.52
2018-07-26T12:07:25.803Z,26.72
2018-07-26T12:08:25.807Z,25.20
2018-07-26T12:09:25.816Z,25.98
2018-07-26T12:10:25.813Z,25.87
2018-07-26T12:11:25.852Z,25.40
2018-07-26T12:12:25.829Z,26.49
2018-07-26T12:13:25.832Z,27.40
2018-07-26T12:14:25.885Z,25.42
2018-07-26T12:15:25.839Z,26.08
2018-07-26T12:16:25.850Z,25.98
2018-07-26T12:17:25.866Z,26.54
2018-07-26T12:18:25.855Z,27.91
2018-07-26T12:19:25.861Z,27.81
2018-07-26T12:20:25.870Z,28.42
2018-07-26T12:21:25.898Z,26.95
2018-07-26T12:22:25.880Z,27.84
2018-07-26T12:23:25.879Z,26.75
2018-07-26T12:24:25.884Z,26.76
2018-07-26T12:25:25.905Z,26.86
2018-07-26T12:26:25.909Z,26.56
2018-07-26T12:27:25.897Z,26.17
2018-07-26T12:28:25.902Z,25.59
2018-07-26T12:29:25.911Z,26.68
2018-07-26T12:30:25.934Z,27.47
2018-07-26T12:31:25.914Z,28.47
2018-07-26T12:32:25.940Z,26.40
2018-07-26T12:33:25.931Z,26.80
2018-07-26T12:34:25.934Z,26.01
2018-07-26T12:35:25.954Z,25.32
2018-07-26T12:36:25.940Z,27.21
2018-07-26T12:37:25.971Z,26.52
2018-07-26T12:38:25.946Z,25.84
2018-07-26T12:39:25.948Z,26.72
2018-07-26T12:40:25.960Z,25.21
2018-07-26T12:41:25.963Z,24.31
2018-07-26T12:42:25.982Z,26.49
2018-07-26T12:43:25.966Z,25.70
2018-07-26T12:44:25.979Z,25.42
2018-07-26T12:45:25.979Z,25.42
2018-07-26T12:46:25.990Z,26.61
2018-07-26T12:47:26.041Z,25.92
2018-07-26T12:48:25.998Z,26.62
2018-07-26T12:49:26.014Z,25.02
2018-07-26T12:50:26.019Z,25.61
2018-07-26T12:51:26.018Z,24.00
2018-07-26T12:52:26.036Z,25.26